Time;durP1;ratioP1;P1;durP2;ratioP2;P2;SDS_P1;SDS_P2;PMS_P1;PMS_P2;Temp;Humidity;BMP_temperature;BMP_pressure;BME280_temperature;BME280_humidity;BME280_pressure;Samples;Min_cycle;Max_cycle;Signal;HPM_P1;HPM_P2
2021/01/09 00:02:02;;;;;;;16.25;8.95;;;;;;;-0.95;95.98;100868.75;5093632;28;20099;-72
2021/01/09 00:04:27;;;;;;;13.88;8.00;;;;;;;-0.91;96.04;100874.81;5093512;28;20416;-72
2021/01/09 00:06:52;;;;;;;13.48;7.22;;;;;;;-0.93;95.74;100873.06;5093585;28;20073;-72
2021/01/09 00:09:17;;;;;;;15.13;8.77;;;;;;;-0.94;95.52;100873.00;5093453;28;20028;-72
2021/01/09 00:11:43;;;;;;;15.75;9.25;;;;;;;-0.98;95.42;100872.06;5093247;28;20380;-72
2021/01/09 00:14:08;;;;;;;16.42;9.23;;;;;;;-0.95;95.35;100873.84;5093283;28;20051;-72
2021/01/09 00:16:33;;;;;;;16.58;9.43;;;;;;;-0.98;95.94;100873.75;5093494;28;20031;-72
2021/01/09 00:18:58;;;;;;;15.00;8.85;;;;;;;-0.99;95.74;100871.97;5093393;28;20106;-72
2021/01/09 00:21:33;;;;;;;15.45;9.10;;;;;;;-0.98;95.88;100871.19;5093133;28;20058;-72
2021/01/09 00:23:58;;;;;;;13.90;8.48;;;;;;;-0.99;95.73;100877.94;5093233;28;20031;-72
2021/01/09 00:26:23;;;;;;;16.23;9.07;;;;;;;-1.00;95.86;100877.91;5093019;28;20036;-72
2021/01/09 00:28:48;;;;;;;17.90;9.35;;;;;;;-1.02;96.06;100876.97;5093342;28;20049;-72
2021/01/09 00:31:14;;;;;;;18.13;9.15;;;;;;;-0.96;96.01;100877.19;5091606;28;20365;-72
2021/01/09 00:33:39;;;;;;;14.60;7.68;;;;;;;-0.98;95.99;100883.91;5092894;28;20047;-72
2021/01/09 00:36:04;;;;;;;15.10;9.23;;;;;;;-0.99;96.24;100882.16;5092874;28;20020;-72
2021/01/09 00:38:29;;;;;;;14.65;7.07;;;;;;;-0.98;95.56;100881.38;5092859;28;20053;-72
2021/01/09 00:40:55;;;;;;;17.60;9.20;;;;;;;-1.02;96.02;100888.00;5091620;28;20081;-72
2021/01/09 00:43:20;;;;;;;18.10;10.43;;;;;;;-1.02;95.71;100892.25;5092994;28;20027;-72
2021/01/09 00:45:45;;;;;;;14.20;6.05;;;;;;;-1.00;95.34;100896.59;5092946;28;20039;-72
2021/01/09 00:48:10;;;;;;;16.30;9.52;;;;;;;-1.02;95.79;100892.25;5093077;28;20024;-72
2021/01/09 00:50:36;;;;;;;15.52;8.38;;;;;;;-1.01;95.71;100897.41;5091396;28;20472;-72
2021/01/09 00:53:01;;;;;;;14.63;8.30;;;;;;;-1.03;95.67;100908.34;5092688;28;20023;-72
2021/01/09 00:55:26;;;;;;;16.10;9.75;;;;;;;-1.06;95.63;100903.16;5092894;28;20028;-72
2021/01/09 00:57:51;;;;;;;17.42;9.48;;;;;;;-1.11;95.99;100905.53;5092655;28;20040;-72
2021/01/09 01:00:17;;;;;;;16.85;10.57;;;;;;;-1.14;95.81;100904.56;5092653;28;20427;-71
2021/01/09 01:02:42;;;;;;;15.98;8.98;;;;;;;-1.12;96.12;100908.03;5096025;28;20016;-72
2021/01/09 01:05:09;;;;;;;18.10;8.77;;;;;;;-1.11;96.36;100907.19;5097181;28;20073;-72
2021/01/09 01:07:37;;;;;;;16.92;8.88;;;;;;;-1.10;96.09;100908.97;5096802;28;20028;-72
2021/01/09 01:10:03;;;;;;;17.58;9.82;;;;;;;-1.09;95.97;100915.75;5095610;28;20016;-72
2021/01/09 01:12:29;;;;;;;16.55;9.88;;;;;;;-1.11;96.12;100913.16;5096492;28;20058;-72
2021/01/09 01:14:54;;;;;;;16.27;9.75;;;;;;;-1.10;96.18;100926.78;5097065;28;20462;-72
2021/01/09 01:17:19;;;;;;;18.05;10.70;;;;;;;-1.13;95.94;100930.06;5096383;28;20036;-72
2021/01/09 01:19:44;;;;;;;17.23;9.23;;;;;;;-1.11;96.21;100927.56;5096730;28;20042;-72
2021/01/09 01:22:10;;;;;;;16.10;9.77;;;;;;;-1.11;96.56;100925.88;5096671;28;20044;-71
2021/01/09 01:24:35;;;;;;;17.85;10.40;;;;;;;-1.10;96.03;100934.41;5096837;28;20057;-72
2021/01/09 01:27:00;;;;;;;19.17;10.25;;;;;;;-1.10;96.51;100930.19;5096344;28;20064;-72
2021/01/09 01:29:25;;;;;;;16.65;9.57;;;;;;;-1.06;96.16;100926.06;5096318;28;20390;-73
2021/01/09 01:31:51;;;;;;;20.30;10.05;;;;;;;-1.13;96.54;100930.06;5096261;28;20016;-72
2021/01/09 01:34:16;;;;;;;19.92;10.70;;;;;;;-1.12;96.32;100936.88;5094986;28;20066;-72
2021/01/09 01:36:47;;;;;;;20.88;10.38;;;;;;;-1.11;96.37;100938.59;5096411;28;20472;-72
2021/01/09 01:39:12;;;;;;;18.45;9.57;;;;;;;-1.09;95.95;100931.03;5096703;28;20506;-72
2021/01/09 01:41:37;;;;;;;16.38;9.88;;;;;;;-1.11;96.58;100938.59;5096308;28;20024;-72
2021/01/09 01:44:02;;;;;;;20.58;10.77;;;;;;;-1.11;96.28;100937.75;5096199;28;20379;-72
2021/01/09 01:46:28;;;;;;;16.70;10.18;;;;;;;-1.09;96.30;100941.22;5096393;28;20023;-72
2021/01/09 01:48:53;;;;;;;18.27;9.70;;;;;;;-1.07;96.04;100940.47;5096118;28;20028;-71
2021/01/09 01:51:19;;;;;;;15.00;9.07;;;;;;;-1.06;95.93;100941.31;5096434;28;20115;-72
2021/01/09 01:53:44;;;;;;;15.63;9.30;;;;;;;-1.04;96.24;100942.25;5095818;28;20024;-72
2021/01/09 01:56:09;;;;;;;16.05;9.57;;;;;;;-1.09;96.24;100943.75;5095886;28;20028;-72
2021/01/09 01:58:34;;;;;;;10.68;5.80;;;;;;;-1.10;95.96;100944.59;5096019;28;20153;-72
2021/01/09 02:00:59;;;;;;;16.50;9.25;;;;;;;-1.11;95.95;100946.25;5096118;28;20403;-72
2021/01/09 02:03:25;;;;;;;17.30;8.70;;;;;;;-1.11;96.00;100948.78;5094460;28;20109;-72
2021/01/09 02:06:04;;;;;;;15.35;8.30;;;;;;;-1.05;96.06;100949.00;5095767;28;20476;-71
2021/01/09 02:08:41;;;;;;;14.88;8.40;;;;;;;-1.07;96.00;100947.25;5094584;28;20020;-71
2021/01/09 02:11:15;;;;;;;14.82;8.35;;;;;;;-1.07;96.04;100949.78;5094430;28;20020;-71
2021/01/09 02:13:52;;;;;;;16.33;8.65;;;;;;;-1.09;95.77;100946.31;5094670;28;20111;-72
2021/01/09 02:16:18;;;;;;;13.30;8.52;;;;;;;-1.09;95.76;100948.84;5095888;28;20036;-72
2021/01/09 02:18:45;;;;;;;13.77;8.43;;;;;;;-1.09;95.53;100951.41;5095563;28;20059;-72
2021/01/09 02:21:37;;;;;;;12.82;7.63;;;;;;;-1.11;95.54;100956.41;5094332;28;20032;-72
2021/01/09 02:24:17;;;;;;;13.52;8.25;;;;;;;-1.10;96.19;100949.69;5094425;28;20030;-71
2021/01/09 02:26:43;;;;;;;17.02;8.75;;;;;;;-1.10;95.90;100952.22;5094073;28;20024;-72
2021/01/09 02:29:11;;;;;;;14.55;8.82;;;;;;;-1.11;96.24;100955.56;5094004;28;20016;-72
2021/01/09 02:31:49;;;;;;;16.05;8.35;;;;;;;-1.09;95.81;100949.72;5095471;28;20020;-72
2021/01/09 02:34:17;;;;;;;13.82;8.45;;;;;;;-1.07;95.41;100959.97;5095576;28;20028;-72
2021/01/09 02:36:43;;;;;;;15.93;9.05;;;;;;;-1.10;95.88;100962.41;5093792;28;20108;-72
2021/01/09 02:39:09;;;;;;;15.43;8.13;;;;;;;-1.14;96.08;100958.00;5093750;28;20096;-71
2021/01/09 02:41:35;;;;;;;17.23;9.30;;;;;;;-1.13;95.86;100957.22;5093895;28;20476;-71
2021/01/09 02:44:09;;;;;;;14.05;8.55;;;;;;;-1.11;96.03;100953.88;5095021;28;20028;-71
2021/01/09 02:46:35;;;;;;;15.02;8.77;;;;;;;-1.09;95.85;100949.72;5095094;28;20395;-71
2021/01/09 02:49:00;;;;;;;15.82;8.88;;;;;;;-1.06;95.96;100956.59;5094858;28;20054;-71
2021/01/09 02:51:25;;;;;;;16.05;9.02;;;;;;;-1.09;95.38;100956.50;5094702;28;20028;-71
2021/01/09 02:53:50;;;;;;;14.95;9.80;;;;;;;-1.07;96.22;100959.97;5094692;28;20525;-71
2021/01/09 02:58:43;;;;;;;14.73;8.45;;;;;;;-1.07;96.01;100962.50;5092543;28;20093;-76
2021/01/09 03:01:08;;;;;;;16.48;9.52;;;;;;;-1.09;95.91;100965.00;5095059;28;20032;-75
2021/01/09 03:03:34;;;;;;;15.18;9.32;;;;;;;-1.08;95.64;100976.91;5076886;28;20030;-75
2021/01/09 03:05:59;;;;;;;15.57;9.25;;;;;;;-1.09;96.31;100980.25;5076760;28;20369;-76
2021/01/09 03:08:24;;;;;;;19.38;9.30;;;;;;;-1.10;96.22;100970.03;5094829;28;20020;-76
2021/01/09 03:10:50;;;;;;;17.23;10.18;;;;;;;-1.10;96.05;100982.75;5095158;28;20028;-75
2021/01/09 03:13:15;;;;;;;15.32;8.82;;;;;;;-1.09;95.81;100979.41;5076663;28;20024;-75
2021/01/09 03:15:40;;;;;;;17.17;9.77;;;;;;;-1.09;95.86;100979.41;5094756;28;20028;-76
2021/01/09 03:18:05;;;;;;;16.98;9.55;;;;;;;-1.07;96.37;100977.78;5076496;28;20024;-76
2021/01/09 03:20:31;;;;;;;16.48;9.57;;;;;;;-1.08;96.33;100984.53;5094668;28;20019;-75
2021/01/09 03:22:56;;;;;;;15.80;9.57;;;;;;;-1.06;96.39;100985.47;5094768;28;20487;-76
2021/01/09 03:25:21;;;;;;;15.10;9.18;;;;;;;-1.09;95.81;100987.91;5094175;28;20028;-75
2021/01/09 03:27:46;;;;;;;19.40;10.40;;;;;;;-1.09;96.34;100987.91;5076316;28;20024;-76
2021/01/09 03:30:12;;;;;;;16.40;10.00;;;;;;;-1.09;95.91;100984.50;5094478;28;20074;-76
2021/01/09 03:32:37;;;;;;;18.20;10.60;;;;;;;-1.07;96.19;100985.41;5076134;28;20020;-76
2021/01/09 03:35:03;;;;;;;20.70;11.00;;;;;;;-1.07;96.01;100990.50;5076274;28;20059;-75
2021/01/09 03:37:28;;;;;;;17.85;9.93;;;;;;;-1.08;96.21;100989.63;5094216;28;20016;-77
2021/01/09 03:39:53;;;;;;;15.68;8.73;;;;;;;-1.09;95.98;100999.75;5094557;28;20028;-77
2021/01/09 03:42:19;;;;;;;16.75;10.13;;;;;;;-1.06;95.97;100999.88;5076019;28;20028;-76
2021/01/09 03:44:44;;;;;;;18.17;9.98;;;;;;;-1.07;95.73;101001.56;5076005;28;20049;-76
2021/01/09 03:47:09;;;;;;;17.67;9.43;;;;;;;-1.07;95.70;100993.91;5094149;28;20047;-76
2021/01/09 03:49:34;;;;;;;14.75;8.50;;;;;;;-1.07;95.87;101000.69;5075903;28;20030;-76
2021/01/09 03:52:00;;;;;;;16.88;8.95;;;;;;;-1.04;95.37;100995.72;5075806;28;20533;-77
2021/01/09 03:54:25;;;;;;;15.75;9.52;;;;;;;-1.05;95.36;101001.59;5075897;28;20020;-76
2021/01/09 03:56:50;;;;;;;15.35;9.43;;;;;;;-1.06;95.93;100994.78;5075703;28;20081;-76
2021/01/09 03:59:15;;;;;;;15.68;8.95;;;;;;;-1.04;95.45;101001.66;5094262;28;20051;-77
2021/01/09 04:01:41;;;;;;;16.65;10.20;;;;;;;-1.07;95.64;101004.09;5075704;28;20036;-76
2021/01/09 04:04:06;;;;;;;14.27;8.13;;;;;;;-1.06;95.83;101003.28;5093829;28;20034;-76
2021/01/09 04:06:31;;;;;;;16.92;9.50;;;;;;;-1.05;95.76;101007.53;5075640;28;20400;-77
2021/01/09 04:08:56;;;;;;;16.75;9.65;;;;;;;-1.10;95.77;101003.13;5075623;28;20024;-77
2021/01/09 04:11:22;;;;;;;17.20;10.02;;;;;;;-1.07;95.42;101013.41;5075560;28;20036;-76
2021/01/09 04:13:47;;;;;;;15.25;9.00;;;;;;;-1.11;96.07;101014.97;5093869;28;20030;-76
2021/01/09 04:16:12;;;;;;;19.80;9.60;;;;;;;-1.07;96.25;101011.75;5075361;28;20026;-77
2021/01/09 04:18:37;;;;;;;16.00;9.30;;;;;;;-1.11;95.99;101016.66;5093929;28;20038;-76
2021/01/09 04:21:03;;;;;;;17.38;9.88;;;;;;;-1.12;95.68;101020.88;5094131;28;20445;-76
2021/01/09 04:23:28;;;;;;;16.42;10.55;;;;;;;-1.10;95.96;101026.03;5075402;28;20020;-76
2021/01/09 04:25:53;;;;;;;16.70;9.55;;;;;;;-1.08;95.89;101032.88;5076040;28;20023;-76
2021/01/09 04:28:19;;;;;;;18.13;10.30;;;;;;;-1.08;96.24;101035.44;5093419;28;20020;-77
2021/01/09 04:30:44;;;;;;;16.85;9.75;;;;;;;-1.09;95.98;101032.84;5093475;28;20016;-76
2021/01/09 04:33:10;;;;;;;18.30;11.15;;;;;;;-1.11;95.83;101029.38;5093348;28;20024;-76
2021/01/09 04:35:35;;;;;;;17.00;10.15;;;;;;;-1.15;95.76;101036.03;5093007;28;20082;-76
2021/01/09 04:38:00;;;;;;;19.35;11.10;;;;;;;-1.10;95.70;101041.31;5074816;28;20020;-77
2021/01/09 04:40:25;;;;;;;19.38;10.27;;;;;;;-1.13;95.81;101036.09;5075134;28;20020;-76
2021/01/09 04:42:51;;;;;;;17.23;9.93;;;;;;;-1.16;95.84;101041.94;5093259;28;20384;-77
2021/01/09 04:45:16;;;;;;;18.13;9.75;;;;;;;-1.13;95.81;101047.16;5075162;28;20112;-76
2021/01/09 04:47:43;;;;;;;18.92;10.02;;;;;;;-1.13;95.76;101041.19;5093123;28;20100;-77
2021/01/09 04:50:09;;;;;;;16.30;9.90;;;;;;;-1.11;95.78;101054.81;5093198;28;20483;-76
2021/01/09 04:52:37;;;;;;;16.27;9.65;;;;;;;-1.11;95.88;101049.72;5075017;28;20034;-77
2021/01/09 04:55:03;;;;;;;17.73;9.73;;;;;;;-1.12;95.78;101048.00;5075101;28;20016;-76
2021/01/09 04:57:32;;;;;;;16.88;10.02;;;;;;;-1.12;95.90;101058.19;5074891;28;20035;-76
2021/01/09 04:59:57;;;;;;;19.38;10.40;;;;;;;-1.18;95.99;101051.19;5093352;28;20028;-77
2021/01/09 05:02:23;;;;;;;18.45;10.70;;;;;;;-1.14;95.92;101057.25;5074893;28;20027;-76
2021/01/09 05:04:48;;;;;;;16.63;10.48;;;;;;;-1.12;96.23;101058.19;5093066;28;20032;-76
2021/01/09 05:07:14;;;;;;;18.92;11.23;;;;;;;-1.16;96.05;101062.31;5093019;28;20095;-77
2021/01/09 05:09:42;;;;;;;18.55;10.88;;;;;;;-1.12;95.63;101064.13;5092946;28;20027;-77
2021/01/09 05:12:08;;;;;;;15.23;8.50;;;;;;;-1.11;95.61;101072.63;5092889;28;20472;-76
2021/01/09 05:14:34;;;;;;;16.75;9.70;;;;;;;-1.13;95.44;101069.19;5092987;28;20035;-76
2021/01/09 05:17:01;;;;;;;17.15;8.57;;;;;;;-1.09;95.81;101073.56;5092871;28;20024;-77
2021/01/09 05:19:29;;;;;;;16.08;9.70;;;;;;;-1.13;95.83;101067.50;5074834;28;20020;-76
2021/01/09 05:21:57;;;;;;;15.98;9.15;;;;;;;-1.11;95.07;101070.97;5092896;28;20407;-76
2021/01/09 05:24:23;;;;;;;15.63;9.43;;;;;;;-1.11;95.47;101070.97;5092905;28;20024;-76
2021/01/09 05:26:48;;;;;;;16.85;9.98;;;;;;;-1.11;95.12;101075.19;5092985;28;20476;-77
2021/01/09 05:29:16;;;;;;;15.18;9.57;;;;;;;-1.12;95.29;101081.09;5092791;28;20024;-76
2021/01/09 05:31:42;;;;;;;14.95;9.10;;;;;;;-1.13;95.36;101084.47;5092698;28;20024;-76
2021/01/09 05:34:07;;;;;;;13.25;8.45;;;;;;;-1.13;95.21;101089.56;5092796;28;20108;-76
2021/01/09 05:36:33;;;;;;;14.38;9.20;;;;;;;-1.09;94.76;101093.94;5074648;28;20060;-77
2021/01/09 05:38:58;;;;;;;14.15;8.80;;;;;;;-1.10;95.16;101087.97;5074667;28;20484;-76
2021/01/09 05:41:25;;;;;;;15.05;9.35;;;;;;;-1.14;95.07;101093.75;5074684;28;20085;-76
2021/01/09 05:44:02;;;;;;;16.73;9.05;;;;;;;-1.11;95.13;101093.00;5074725;28;20024;-76
2021/01/09 05:46:35;;;;;;;15.43;8.85;;;;;;;-1.09;95.08;101093.94;5074612;28;20066;-77
2021/01/09 05:49:01;;;;;;;16.13;9.35;;;;;;;-1.13;94.69;101103.13;5096098;28;20031;-76
2021/01/09 05:51:31;;;;;;;14.52;9.20;;;;;;;-1.07;94.72;101094.88;5078313;28;20020;-76
2021/01/09 05:53:56;;;;;;;13.57;8.20;;;;;;;-1.11;95.35;101100.63;5096408;28;20024;-77
2021/01/09 05:56:23;;;;;;;14.63;8.82;;;;;;;-1.11;95.54;101098.97;5096136;28;20031;-77
2021/01/09 05:58:50;;;;;;;13.82;8.43;;;;;;;-1.11;95.35;101101.50;5078155;28;20118;-76
2021/01/09 06:01:19;;;;;;;16.15;9.85;;;;;;;-1.11;95.32;101098.09;5078130;28;20034;-76
2021/01/09 06:03:47;;;;;;;16.83;9.43;;;;;;;-1.10;95.55;101102.41;5078149;28;20115;-76
2021/01/09 06:06:31;;;;;;;17.08;9.23;;;;;;;-1.11;95.63;101096.41;5077968;28;20154;-77
2021/01/09 06:09:04;;;;;;;17.35;9.57;;;;;;;-1.09;95.43;101104.97;5096289;28;20020;-76
2021/01/09 06:11:38;;;;;;;15.20;9.15;;;;;;;-1.11;95.30;101111.69;5077802;28;20503;-76
2021/01/09 06:14:06;;;;;;;15.75;9.90;;;;;;;-1.09;95.39;101116.84;5077886;28;20032;-77
2021/01/09 06:16:34;;;;;;;15.25;9.55;;;;;;;-1.08;95.34;101116.03;5077709;28;20031;-77
2021/01/09 06:19:00;;;;;;;18.20;9.98;;;;;;;-1.10;95.39;101118.53;5077667;28;20024;-76
2021/01/09 06:21:27;;;;;;;17.02;9.68;;;;;;;-1.13;95.24;101118.41;5077655;28;20498;-76
2021/01/09 06:23:54;;;;;;;16.63;9.63;;;;;;;-1.11;95.41;101126.09;5077637;28;20468;-77
2021/01/09 06:26:20;;;;;;;16.20;10.15;;;;;;;-1.14;95.38;101125.97;5095704;28;20377;-77
2021/01/09 06:28:50;;;;;;;12.43;7.30;;;;;;;-1.12;95.33;101129.44;5077562;28;20066;-77
2021/01/09 06:31:20;;;;;;;15.75;9.65;;;;;;;-1.10;95.58;101130.41;5095720;28;20099;-77
2021/01/09 06:33:51;;;;;;;16.02;8.98;;;;;;;-1.10;95.30;101128.72;5095613;28;20129;-76
2021/01/09 06:36:22;;;;;;;15.30;8.60;;;;;;;-1.13;95.33;101133.69;5095648;28;20217;-77
2021/01/09 06:38:53;;;;;;;17.55;10.07;;;;;;;-1.16;95.35;101144.59;5077455;28;20020;-76
2021/01/09 06:41:21;;;;;;;16.90;10.32;;;;;;;-1.14;95.12;101136.16;5095499;28;20506;-76
2021/01/09 06:43:49;;;;;;;18.17;10.25;;;;;;;-1.18;95.74;101140.25;5077522;28;20426;-76
2021/01/09 06:46:32;;;;;;;16.88;10.27;;;;;;;-1.13;95.57;101140.47;5077173;28;20031;-77
2021/01/09 06:48:58;;;;;;;18.92;10.60;;;;;;;-1.16;95.53;101146.28;5095274;28;20016;-77
2021/01/09 06:51:39;;;;;;;16.92;10.48;;;;;;;-1.20;95.44;101146.97;5077314;28;20028;-76
2021/01/09 06:54:13;;;;;;;16.95;10.07;;;;;;;-1.20;95.47;101152.94;5095286;28;20431;-76
2021/01/09 06:56:39;;;;;;;18.83;11.10;;;;;;;-1.18;95.93;101150.44;5095470;28;20035;-77
2021/01/09 06:59:04;;;;;;;21.90;11.13;;;;;;;-1.19;95.71;101158.91;5094467;28;20503;-77
2021/01/09 07:01:36;;;;;;;17.98;11.05;;;;;;;-1.20;95.99;101154.59;5095045;28;20036;-77
2021/01/09 07:04:01;;;;;;;15.63;10.23;;;;;;;-1.23;95.44;101155.38;5076937;28;20022;-76
2021/01/09 07:06:57;;;;;;;15.93;10.02;;;;;;;-1.20;96.05;101160.59;5095268;28;20099;-76
2021/01/09 07:09:32;;;;;;;19.08;9.95;;;;;;;-1.19;95.50;101164.84;5094942;28;20086;-77
2021/01/09 07:11:59;;;;;;;16.88;10.40;;;;;;;-1.20;95.38;101163.13;5076970;28;20031;-77
2021/01/09 07:14:34;;;;;;;15.73;10.00;;;;;;;-1.19;95.58;101161.44;5094894;28;20028;-76
2021/01/09 07:17:00;;;;;;;15.88;10.10;;;;;;;-1.20;94.98;101163.13;5094805;28;20020;-77
2021/01/09 07:19:29;;;;;;;16.33;10.32;;;;;;;-1.19;95.16;101172.50;5076576;28;20028;-77
2021/01/09 07:21:56;;;;;;;18.88;10.73;;;;;;;-1.21;95.47;101166.47;5076586;28;20034;-77
2021/01/09 07:24:23;;;;;;;20.42;11.43;;;;;;;-1.22;95.18;101171.50;5076485;28;20114;-76
2021/01/09 07:26:50;;;;;;;18.40;10.82;;;;;;;-1.19;95.45;101174.16;5076548;28;20510;-77
2021/01/09 07:29:23;;;;;;;17.45;10.98;;;;;;;-1.24;95.33;101179.06;5076196;28;20046;-76
2021/01/09 07:31:52;;;;;;;19.10;12.02;;;;;;;-1.23;95.17;101174.84;5076244;28;20035;-76
2021/01/09 07:34:21;;;;;;;18.63;11.10;;;;;;;-1.21;95.25;101178.31;5076521;28;20047;-77
2021/01/09 07:36:52;;;;;;;20.80;11.98;;;;;;;-1.23;95.48;101179.91;5076320;28;20444;-77
2021/01/09 07:39:22;;;;;;;20.80;12.05;;;;;;;-1.20;95.73;101180.03;5076346;28;20114;-77
2021/01/09 07:41:47;;;;;;;20.83;12.27;;;;;;;-1.21;95.81;101178.31;5076152;28;20023;-77
2021/01/09 07:44:15;;;;;;;22.50;12.27;;;;;;;-1.16;95.51;101184.47;5076126;28;20106;-76
2021/01/09 07:47:00;;;;;;;26.35;14.00;;;;;;;-1.24;95.15;101179.06;5076041;28;20031;-77
2021/01/09 07:49:31;;;;;;;23.17;13.18;;;;;;;-1.30;95.48;101181.34;5094172;28;20024;-77
2021/01/09 07:51:59;;;;;;;24.17;13.68;;;;;;;-1.28;95.13;101182.31;5094346;28;20024;-76
2021/01/09 07:54:43;;;;;;;21.25;12.70;;;;;;;-1.24;95.90;101191.78;5075965;28;20035;-77
2021/01/09 07:57:18;;;;;;;25.17;14.10;;;;;;;-1.22;95.57;101200.34;5075688;28;20527;-77
2021/01/09 08:00:00;;;;;;;26.50;14.23;;;;;;;-1.22;95.94;101194.41;5094029;28;20027;-76
2021/01/09 08:02:31;;;;;;;26.13;14.13;;;;;;;-1.22;95.69;101202.91;5093990;28;20033;-76
2021/01/09 08:05:03;;;;;;;23.48;13.63;;;;;;;-1.20;96.06;101205.50;5093812;28;20110;-76
2021/01/09 08:07:29;;;;;;;25.65;14.05;;;;;;;-1.21;95.56;101212.25;5093748;28;20097;-77
2021/01/09 08:09:54;;;;;;;24.73;13.70;;;;;;;-1.23;95.47;101206.25;5075724;28;20028;-76
2021/01/09 08:12:26;;;;;;;23.90;13.18;;;;;;;-1.23;95.47;101210.47;5093721;28;20016;-76
2021/01/09 08:14:52;;;;;;;22.23;12.93;;;;;;;-1.18;95.45;101212.38;5093791;28;20542;-77
2021/01/09 08:17:20;;;;;;;23.52;12.40;;;;;;;-1.18;95.34;101217.47;5093926;28;20031;-77
2021/01/09 08:19:46;;;;;;;23.50;13.80;;;;;;;-1.21;95.52;101222.44;5093681;28;20027;-76
2021/01/09 08:22:11;;;;;;;23.83;13.63;;;;;;;-1.19;95.33;101215.75;5093564;28;20020;-76
2021/01/09 08:24:37;;;;;;;29.15;14.18;;;;;;;-1.24;95.63;101221.47;5075440;28;20051;-77
2021/01/09 08:27:02;;;;;;;23.65;12.48;;;;;;;-1.24;95.84;101237.59;5093499;28;20497;-76
2021/01/09 08:29:28;;;;;;;24.95;14.38;;;;;;;-1.19;95.85;101230.16;5075309;28;20019;-76
2021/01/09 08:31:55;;;;;;;22.55;12.63;;;;;;;-1.21;95.16;101235.16;5093380;28;20051;-77
2021/01/09 08:34:21;;;;;;;23.15;13.75;;;;;;;-1.13;95.72;101234.63;5075255;28;20069;-76
2021/01/09 08:36:49;;;;;;;26.33;13.85;;;;;;;-1.04;95.54;101243.50;5075147;28;20030;-77
2021/01/09 08:39:15;;;;;;;24.88;12.10;;;;;;;-1.04;95.42;101240.09;5075216;28;20100;-76
2021/01/09 08:41:42;;;;;;;30.13;13.63;;;;;;;-1.10;95.04;101248.34;5075275;28;20491;-77
2021/01/09 08:44:12;;;;;;;25.92;13.25;;;;;;;-1.20;95.48;101244.56;5093537;28;20130;-76
2021/01/09 08:46:39;;;;;;;25.63;13.73;;;;;;;-1.10;95.50;101244.94;5093027;28;20043;-77
2021/01/09 08:49:05;;;;;;;27.08;12.45;;;;;;;-1.09;95.03;101252.63;5093287;28;20476;-77
2021/01/09 08:51:33;;;;;;;24.67;13.82;;;;;;;-1.07;95.21;101251.00;5075250;28;20506;-77
2021/01/09 08:54:10;;;;;;;25.95;13.00;;;;;;;-1.10;95.15;101255.13;5075020;28;20024;-76
2021/01/09 08:56:36;;;;;;;21.05;11.90;;;;;;;-1.01;94.51;101256.34;5093095;28;20024;-77
2021/01/09 08:59:10;;;;;;;24.75;12.77;;;;;;;-0.94;94.25;101262.53;5140391;23;20044;-72
2021/01/09 09:01:45;;;;;;;25.08;12.02;;;;;;;-0.95;94.40;101258.28;5094658;28;20032;-72
2021/01/09 09:04:10;;;;;;;20.55;11.73;;;;;;;-0.96;94.95;101259.06;5113119;28;20027;-72
2021/01/09 09:06:41;;;;;;;19.67;11.57;;;;;;;-0.89;94.04;101255.97;5113046;28;20020;-72
2021/01/09 09:09:06;;;;;;;19.90;11.52;;;;;;;-0.90;94.25;101259.31;5112857;28;20027;-72
2021/01/09 09:11:32;;;;;;;21.17;11.27;;;;;;;-0.84;93.92;101257.00;5112950;28;20026;-72
2021/01/09 09:14:08;;;;;;;23.38;12.38;;;;;;;-0.82;93.94;101257.94;5112815;28;20085;-72
2021/01/09 09:16:34;;;;;;;23.23;12.95;;;;;;;-0.82;93.87;101257.94;5112787;28;20035;-71
2021/01/09 09:19:18;;;;;;;23.45;13.00;;;;;;;-0.93;94.34;101265.13;5112746;28;20024;-72
2021/01/09 09:21:45;;;;;;;25.85;14.50;;;;;;;-0.89;94.30;101266.16;5113174;28;20019;-71
2021/01/09 09:24:12;;;;;;;27.65;13.73;;;;;;;-0.89;94.67;101266.16;5116565;28;20122;-71
2021/01/09 09:26:38;;;;;;;26.13;14.55;;;;;;;-0.91;94.65;101272.84;5116870;28;20020;-72
2021/01/09 09:29:04;;;;;;;26.92;15.70;;;;;;;-0.85;94.91;101283.28;5098742;28;20557;-72
2021/01/09 09:31:37;;;;;;;25.52;14.73;;;;;;;-0.87;95.04;101282.34;5117041;28;20062;-72
2021/01/09 09:34:16;;;;;;;30.00;15.33;;;;;;;-0.91;94.94;101282.19;5117133;28;20020;-72
2021/01/09 09:36:50;;;;;;;31.00;15.95;;;;;;;-0.97;94.88;101285.34;5116883;28;20424;-72
2021/01/09 09:39:22;;;;;;;;;;;;;;;-0.93;94.65;101289.72;5098562;28;20023;-72
2021/01/09 09:42:01;;;;;;;27.52;15.38;;;;;;;-0.93;94.62;101290.59;5116854;28;20493;-72
2021/01/09 09:44:43;;;;;;;29.00;15.68;;;;;;;-0.95;94.28;101287.16;5116727;28;20390;-72
2021/01/09 09:47:10;;;;;;;26.60;15.10;;;;;;;-0.97;94.59;101285.34;5116527;28;20019;-72
2021/01/09 09:49:36;;;;;;;27.75;14.80;;;;;;;-0.91;94.51;101285.59;5116459;28;20387;-72
2021/01/09 09:52:15;;;;;;;30.00;16.35;;;;;;;-0.85;94.55;101282.41;5116234;28;20023;-72
2021/01/09 09:54:40;;;;;;;31.92;16.08;;;;;;;-0.97;93.91;101285.34;5116608;28;20032;-72
2021/01/09 09:57:05;;;;;;;25.50;15.65;;;;;;;-0.91;94.31;101284.72;5116482;28;20448;-72
2021/01/09 09:59:31;;;;;;;29.92;16.35;;;;;;;-0.94;94.17;101283.78;5115982;28;20036;-72
2021/01/09 10:01:58;;;;;;;23.88;15.07;;;;;;;-0.90;93.98;101278.81;5116336;28;20024;-72
2021/01/09 10:04:23;;;;;;;26.23;15.25;;;;;;;-0.85;93.73;101278.19;5116046;28;20024;-72
2021/01/09 10:06:48;;;;;;;25.70;14.55;;;;;;;-0.81;94.41;101284.28;5116023;28;20034;-72
2021/01/09 10:09:22;;;;;;;26.45;16.58;;;;;;;-0.83;94.35;101276.59;5115888;28;20024;-72
2021/01/09 10:11:49;;;;;;;26.75;15.27;;;;;;;-0.86;93.42;101281.56;5116346;28;20374;-72
2021/01/09 10:14:15;;;;;;;31.98;15.90;;;;;;;-0.85;93.58;101284.97;5115811;28;20393;-72
2021/01/09 10:16:40;;;;;;;26.73;15.85;;;;;;;-0.85;94.16;101285.81;5115758;28;20020;-72
2021/01/09 10:19:06;;;;;;;27.90;16.33;;;;;;;-0.86;94.03;101286.66;5115633;28;20019;-72
2021/01/09 10:21:32;;;;;;;24.55;14.65;;;;;;;-0.82;93.99;101292.72;5115739;28;20544;-72
2021/01/09 10:23:59;;;;;;;31.63;15.45;;;;;;;-0.86;93.47;101294.28;5115612;28;20047;-72
2021/01/09 10:26:33;;;;;;;26.70;15.27;;;;;;;-0.84;93.47;101289.25;5115619;28;20024;-72
2021/01/09 10:28:59;;;;;;;26.90;15.00;;;;;;;-0.74;93.59;101291.31;5115702;28;20031;-72
2021/01/09 10:31:29;;;;;;;25.10;14.60;;;;;;;-0.71;93.53;101289.81;5097288;28;20024;-74
2021/01/09 10:33:55;;;;;;;24.65;14.68;;;;;;;-0.65;93.46;101285.72;5114403;28;20045;-74
2021/01/09 10:36:29;;;;;;;26.33;15.30;;;;;;;-0.76;93.22;101298.94;5115443;28;20028;-74
2021/01/09 10:38:54;;;;;;;26.35;14.82;;;;;;;-0.77;92.90;101297.19;5115373;28;20024;-74
2021/01/09 10:41:20;;;;;;;29.20;14.90;;;;;;;-0.87;93.31;101305.25;5097080;28;20080;-74
2021/01/09 10:43:46;;;;;;;27.73;15.38;;;;;;;-0.77;93.42;101294.66;5115386;28;20020;-74
2021/01/09 10:46:21;;;;;;;28.52;14.73;;;;;;;-0.71;93.68;101297.44;5115614;28;20099;-74
2021/01/09 10:48:46;;;;;;;23.10;13.25;;;;;;;-0.61;93.31;101296.13;5096923;28;20023;-74
2021/01/09 10:51:13;;;;;;;27.00;14.63;;;;;;;-0.72;93.16;101294.81;5115124;28;20076;-74
2021/01/09 10:53:38;;;;;;;24.92;15.10;;;;;;;-0.67;93.65;101297.56;5115307;28;20032;-74
2021/01/09 10:56:04;;;;;;;27.27;14.00;;;;;;;-0.76;93.96;101296.38;5115041;28;20360;-74
2021/01/09 10:58:29;;;;;;;28.88;15.07;;;;;;;-0.80;93.85;101297.06;5096450;28;20020;-74
2021/01/09 11:00:54;;;;;;;28.58;15.57;;;;;;;-0.78;94.07;101294.56;5115268;28;20043;-75
2021/01/09 11:03:19;;;;;;;29.90;14.63;;;;;;;-0.72;93.50;101300.78;5115139;28;20043;-74
2021/01/09 11:05:45;;;;;;;26.17;13.70;;;;;;;-0.73;93.47;101299.03;5115380;28;20058;-74
2021/01/09 11:08:10;;;;;;;29.08;14.82;;;;;;;-0.73;93.81;101298.19;5096352;28;20033;-74
2021/01/09 11:10:36;;;;;;;28.98;14.90;;;;;;;-0.68;93.53;101294.13;5114758;28;20050;-74
2021/01/09 11:13:01;;;;;;;25.52;14.25;;;;;;;-0.77;93.12;101294.66;5096423;28;20104;-74
2021/01/09 11:15:26;;;;;;;26.80;13.65;;;;;;;-0.67;93.34;101284.81;5096525;28;20033;-74
2021/01/09 11:17:51;;;;;;;26.33;14.45;;;;;;;-0.66;93.44;101286.56;5114614;28;20031;-74
2021/01/09 11:20:17;;;;;;;24.08;12.68;;;;;;;-0.64;93.38;101284.94;5096484;28;20371;-74